createdAt,value
2019-06-01T00:00:20.327Z,18.70
2019-06-01T00:02:56.451Z,18.65
2019-06-01T00:05:25.191Z,18.66
2019-06-01T00:07:56.024Z,18.65
2019-06-01T00:10:26.710Z,18.66
2019-06-01T00:12:57.719Z,18.59
2019-06-01T00:15:28.566Z,18.45
2019-06-01T00:17:59.356Z,18.33
2019-06-01T00:20:30.284Z,18.28
2019-06-01T00:23:01.106Z,18.02
2019-06-01T00:25:31.845Z,18.08
2019-06-01T00:28:02.580Z,18.08
2019-06-01T00:30:33.417Z,18.24
2019-06-01T00:33:04.293Z,18.27
2019-06-01T00:35:35.212Z,18.23
2019-06-01T00:38:06.006Z,18.18
2019-06-01T00:40:37.065Z,18.22
2019-06-01T00:43:07.701Z,18.14
2019-06-01T00:45:38.571Z,18.17
2019-06-01T00:48:09.343Z,18.21
2019-06-01T00:50:39.840Z,18.08
2019-06-01T00:53:10.412Z,18.03
2019-06-01T00:55:40.910Z,17.94
2019-06-01T00:58:11.417Z,17.93
2019-06-01T01:00:44.164Z,17.93
2019-06-01T01:03:14.202Z,17.87
2019-06-01T01:05:44.739Z,17.76
2019-06-01T01:08:15.329Z,17.81
2019-06-01T01:10:46.842Z,17.69
2019-06-01T01:13:20.063Z,17.82
2019-06-01T01:15:51.392Z,17.75
2019-06-01T01:18:22.168Z,17.70
2019-06-01T01:20:54.165Z,17.63
2019-06-01T01:23:25.033Z,17.62
2019-06-01T01:25:56.645Z,17.62
2019-06-01T01:28:27.436Z,17.64
2019-06-01T01:31:12.472Z,17.43
2019-06-01T01:33:31.771Z,17.34
2019-06-01T01:36:02.572Z,17.38
2019-06-01T01:38:33.309Z,17.47
2019-06-01T01:41:04.273Z,17.48
2019-06-01T01:43:35.037Z,17.49
2019-06-01T01:46:06.283Z,17.48
2019-06-01T01:48:37.134Z,17.49
2019-06-01T01:51:08.276Z,17.41
2019-06-01T01:53:39.187Z,17.35
2019-06-01T01:56:10.072Z,17.40
2019-06-01T01:58:40.878Z,17.37
2019-06-01T02:01:22.244Z,17.27
2019-06-01T02:03:44.130Z,17.33
2019-06-01T02:06:14.889Z,17.30
2019-06-01T02:08:46.653Z,17.30
2019-06-01T02:11:17.452Z,17.23
2019-06-01T02:13:48.469Z,17.23
2019-06-01T02:16:19.353Z,17.27
2019-06-01T02:18:50.121Z,17.20
2019-06-01T02:21:20.998Z,17.19
2019-06-01T02:23:52.931Z,17.09
2019-06-01T02:26:23.879Z,16.87
2019-06-01T02:28:55.688Z,16.91
2019-06-01T02:31:40.935Z,16.95
2019-06-01T02:33:59.256Z,16.93
2019-06-01T02:36:30.581Z,16.92
2019-06-01T02:39:02.793Z,17.03
2019-06-01T02:41:33.746Z,17.03
2019-06-01T02:44:06.386Z,16.96
2019-06-01T02:46:36.754Z,16.94
2019-06-01T02:49:07.327Z,16.84
2019-06-01T02:51:37.836Z,16.83
2019-06-01T02:54:08.409Z,16.88
2019-06-01T02:56:38.927Z,16.79
2019-06-01T02:59:09.784Z,16.71
2019-06-01T03:01:55.974Z,16.76
2019-06-01T03:04:14.393Z,16.69
2019-06-01T03:06:47.412Z,16.66
2019-06-01T03:09:20.983Z,16.53
2019-06-01T03:11:54.324Z,16.56
2019-06-01T03:14:27.850Z,16.54
2019-06-01T03:17:01.951Z,16.59
2019-06-01T03:19:34.280Z,16.54
2019-06-01T03:22:08.492Z,16.58
2019-06-01T03:24:39.318Z,16.54
2019-06-01T03:27:13.120Z,16.46
2019-06-01T03:29:47.237Z,16.40
2019-06-01T03:32:34.501Z,16.47
2019-06-01T03:34:50.646Z,16.39
2019-06-01T03:37:21.688Z,16.37
2019-06-01T03:39:52.521Z,16.34
2019-06-01T03:42:23.736Z,16.38
2019-06-01T03:44:55.023Z,16.32
2019-06-01T03:47:25.921Z,16.35
2019-06-01T03:49:56.868Z,16.27
2019-06-01T03:52:28.723Z,16.38
2019-06-01T03:54:59.588Z,16.28
2019-06-01T03:57:30.288Z,16.24
2019-06-01T04:00:01.110Z,16.20
2019-06-01T04:02:33.717Z,16.23
2019-06-01T04:05:05.609Z,16.14
2019-06-01T04:07:38.932Z,16.22
2019-06-01T04:10:10.004Z,16.29
2019-06-01T04:12:41.787Z,16.33
2019-06-01T04:15:16.213Z,16.24
2019-06-01T04:17:44.674Z,16.37
2019-06-01T04:20:15.753Z,16.42
2019-06-01T04:22:46.252Z,16.48
2019-06-01T04:25:16.720Z,16.50
2019-06-01T04:27:47.236Z,16.48
2019-06-01T04:30:19.301Z,16.38
2019-06-01T04:32:50.631Z,16.36
2019-06-01T04:35:22.399Z,16.35
2019-06-01T04:37:53.191Z,16.36
2019-06-01T04:40:23.970Z,16.46
2019-06-01T04:42:54.861Z,16.57
2019-06-01T04:45:25.774Z,16.53
2019-06-01T04:47:56.608Z,16.57
2019-06-01T04:50:27.812Z,16.59
2019-06-01T04:52:58.480Z,16.64
2019-06-01T04:55:29.235Z,16.68
2019-06-01T04:58:00.118Z,16.72
2019-06-01T05:00:30.847Z,16.77
2019-06-01T05:03:05.270Z,16.88
2019-06-01T05:05:33.935Z,16.85
2019-06-01T05:08:05.197Z,16.88
2019-06-01T05:10:36.077Z,17.03
2019-06-01T05:13:07.348Z,17.15
2019-06-01T05:15:38.285Z,17.24
2019-06-01T05:18:10.033Z,17.34
2019-06-01T05:20:40.865Z,17.42
2019-06-01T05:23:12.665Z,17.46
2019-06-01T05:25:43.456Z,17.60
2019-06-01T05:28:15.307Z,17.62
2019-06-01T05:30:46.460Z,17.75
2019-06-01T05:33:31.074Z,17.83
2019-06-01T05:35:49.952Z,17.93
2019-06-01T05:38:20.415Z,17.93
2019-06-01T05:40:51.830Z,18.05
2019-06-01T05:43:22.330Z,18.52
2019-06-01T05:45:52.867Z,18.80
2019-06-01T05:48:27.357Z,19.00
2019-06-01T05:50:55.684Z,19.13
2019-06-01T05:53:26.388Z,19.27
2019-06-01T05:55:56.865Z,19.48
2019-06-01T05:58:29.284Z,19.74
2019-06-01T06:00:59.836Z,19.87
2019-06-01T06:03:40.125Z,19.96
2019-06-01T06:06:03.251Z,20.07
2019-06-01T06:08:34.026Z,20.13
2019-06-01T06:11:04.841Z,20.30
2019-06-01T06:13:35.717Z,20.39
2019-06-01T06:16:06.467Z,20.57
2019-06-01T06:18:37.218Z,20.47
2019-06-01T06:21:07.848Z,20.55
2019-06-01T06:23:39.648Z,20.53
2019-06-01T06:26:10.487Z,20.56
2019-06-01T06:28:41.710Z,20.46
2019-06-01T06:31:12.964Z,20.73
2019-06-01T06:33:55.951Z,20.86
2019-06-01T06:36:16.373Z,20.69
2019-06-01T06:38:48.420Z,20.68
2019-06-01T06:41:20.267Z,20.99
2019-06-01T06:43:51.012Z,21.10
2019-06-01T06:46:22.816Z,20.97
2019-06-01T06:48:54.524Z,21.13
2019-06-01T06:51:25.566Z,21.21
2019-06-01T06:53:56.166Z,21.27
2019-06-01T06:56:26.637Z,21.30
2019-06-01T06:58:57.168Z,21.37
2019-06-01T07:01:27.697Z,21.39
2019-06-01T07:04:11.577Z,21.44
2019-06-01T07:06:30.537Z,21.25
2019-06-01T07:09:01.021Z,21.29
2019-06-01T07:11:32.568Z,21.47
2019-06-01T07:14:03.445Z,21.71
2019-06-01T07:16:34.110Z,21.89
2019-06-01T07:19:04.870Z,21.87
2019-06-01T07:21:35.619Z,21.84
2019-06-01T07:24:06.421Z,21.73
2019-06-01T07:26:37.047Z,21.64
2019-06-01T07:29:07.849Z,21.89
2019-06-01T07:31:38.610Z,21.72
2019-06-01T07:34:09.376Z,21.75
2019-06-01T07:36:40.420Z,21.98
2019-06-01T07:39:11.278Z,22.14
2019-06-01T07:41:42.202Z,21.94
2019-06-01T07:44:13.685Z,22.03
2019-06-01T07:46:44.374Z,22.37
2019-06-01T07:49:15.254Z,22.56
2019-06-01T07:51:47.211Z,21.99
2019-06-01T07:54:17.913Z,22.35
2019-06-01T07:56:48.782Z,22.60
2019-06-01T07:59:19.833Z,22.58
2019-06-01T08:01:50.736Z,22.52
2019-06-01T08:04:22.914Z,22.59
2019-06-01T08:06:54.159Z,22.78
2019-06-01T08:09:26.563Z,22.78
2019-06-01T08:11:57.161Z,22.91
2019-06-01T08:14:28.624Z,23.25
2019-06-01T08:16:59.151Z,23.30
2019-06-01T08:19:30.102Z,23.23
2019-06-01T08:22:00.608Z,23.28
2019-06-01T08:24:32.337Z,23.57
2019-06-01T08:27:02.909Z,23.71
2019-06-01T08:29:33.536Z,23.81
2019-06-01T08:32:04.016Z,23.79
2019-06-01T08:34:34.521Z,23.87
2019-06-01T08:37:05.491Z,23.62
2019-06-01T08:39:36.274Z,23.97
2019-06-01T08:42:07.078Z,23.66
2019-06-01T08:44:38.019Z,23.67
2019-06-01T08:47:08.849Z,23.60
2019-06-01T08:49:39.743Z,23.91
2019-06-01T08:52:10.521Z,23.70
2019-06-01T08:54:41.325Z,24.04
2019-06-01T08:57:12.193Z,24.32
2019-06-01T08:59:43.045Z,24.73
2019-06-01T09:02:13.974Z,24.28
2019-06-01T09:04:44.775Z,24.37
2019-06-01T09:07:15.680Z,24.66
2019-06-01T09:09:47.301Z,24.55
2019-06-01T09:12:18.076Z,24.82
2019-06-01T09:14:49.997Z,24.78
2019-06-01T09:17:21.061Z,24.93
2019-06-01T09:19:51.983Z,24.74
2019-06-01T09:22:22.843Z,24.96
2019-06-01T09:24:53.729Z,24.93
2019-06-01T09:27:25.568Z,25.25
2019-06-01T09:29:56.083Z,24.88
2019-06-01T09:32:27.837Z,25.31
2019-06-01T09:34:58.549Z,25.37
2019-06-01T09:37:29.025Z,25.32
2019-06-01T09:39:59.504Z,25.48
2019-06-01T09:42:30.767Z,25.57
2019-06-01T09:45:01.311Z,25.46
2019-06-01T09:47:31.821Z,25.70
2019-06-01T09:50:02.694Z,25.76
2019-06-01T09:52:33.549Z,25.70
2019-06-01T09:55:04.374Z,26.13
2019-06-01T09:57:36.105Z,26.36
2019-06-01T10:00:08.264Z,26.06
2019-06-01T10:02:39.089Z,25.97
2019-06-01T10:05:09.868Z,26.15
2019-06-01T10:07:41.556Z,26.29
2019-06-01T10:10:12.382Z,26.09
2019-06-01T10:12:43.268Z,26.06
2019-06-01T10:15:14.654Z,26.20
2019-06-01T10:17:45.380Z,26.39
2019-06-01T10:20:16.653Z,26.44
2019-06-01T10:22:47.478Z,26.65
2019-06-01T10:25:18.293Z,26.77
2019-06-01T10:27:49.091Z,26.83
2019-06-01T10:30:20.261Z,26.65
2019-06-01T10:32:51.061Z,26.84
2019-06-01T10:35:21.772Z,26.83
2019-06-01T10:37:52.614Z,26.99
2019-06-01T10:40:23.501Z,27.34
2019-06-01T10:42:54.246Z,26.92
2019-06-01T10:45:25.129Z,27.41
2019-06-01T10:47:55.869Z,27.32
2019-06-01T10:50:26.734Z,27.21
2019-06-01T10:52:57.242Z,27.03
2019-06-01T10:55:27.927Z,27.14
2019-06-01T10:57:58.397Z,27.24
2019-06-01T11:00:39.664Z,27.32
2019-06-01T11:03:01.392Z,27.40
2019-06-01T11:05:32.547Z,27.66
2019-06-01T11:08:03.520Z,27.59
2019-06-01T11:10:34.918Z,27.70
2019-06-01T11:13:06.844Z,27.44
2019-06-01T11:15:39.038Z,27.79
2019-06-01T11:18:09.948Z,27.87
2019-06-01T11:20:41.506Z,27.82
2019-06-01T11:23:12.565Z,27.98
2019-06-01T11:25:43.756Z,28.08
2019-06-01T11:28:14.663Z,28.10
2019-06-01T11:30:45.566Z,28.22
2019-06-01T11:33:16.383Z,28.16
2019-06-01T11:35:47.271Z,28.28
2019-06-01T11:38:18.068Z,27.80
2019-06-01T11:40:48.844Z,27.84
2019-06-01T11:43:19.656Z,27.88
2019-06-01T11:45:50.540Z,27.75
2019-06-01T11:48:21.415Z,27.91
2019-06-01T11:50:52.324Z,27.90
2019-06-01T11:53:23.064Z,28.22
2019-06-01T11:55:53.867Z,28.30
2019-06-01T11:58:24.659Z,28.11
2019-06-01T12:00:55.528Z,28.27
2019-06-01T12:03:26.295Z,27.80
2019-06-01T12:05:56.805Z,28.10
2019-06-01T12:08:27.340Z,28.32
2019-06-01T12:10:58.173Z,28.48
2019-06-01T12:13:29.057Z,28.71
2019-06-01T12:15:59.617Z,28.91
2019-06-01T12:18:30.097Z,28.60
2019-06-01T12:21:00.723Z,28.63
2019-06-01T12:23:31.635Z,28.58
2019-06-01T12:26:02.388Z,28.47
2019-06-01T12:28:33.491Z,28.89
2019-06-01T12:31:04.207Z,28.37
2019-06-01T12:33:35.081Z,28.59
2019-06-01T12:36:06.626Z,28.94
2019-06-01T12:38:53.445Z,28.90
2019-06-01T12:41:24.885Z,29.01
2019-06-01T12:44:14.911Z,28.94
2019-06-01T12:46:46.948Z,29.36
2019-06-01T12:49:18.076Z,29.50
2019-06-01T12:51:49.444Z,29.38
2019-06-01T12:54:20.268Z,29.34
2019-06-01T12:56:51.135Z,29.17
2019-06-01T12:59:22.000Z,29.36
2019-06-01T13:01:52.869Z,29.51
2019-06-01T13:04:23.715Z,29.79
2019-06-01T13:06:54.798Z,29.75
2019-06-01T13:09:26.508Z,29.79
2019-06-01T13:11:57.577Z,29.40
2019-06-01T13:14:28.360Z,29.73
2019-06-01T13:17:07.295Z,29.76
2019-06-01T13:19:32.820Z,29.43
2019-06-01T13:22:03.375Z,29.90
2019-06-01T13:24:33.957Z,29.93
2019-06-01T13:27:04.468Z,29.59
2019-06-01T13:29:34.932Z,29.23
2019-06-01T13:32:05.520Z,30.01
2019-06-01T13:34:36.126Z,30.17
2019-06-01T13:37:06.600Z,30.41
2019-06-01T13:39:37.081Z,30.57
2019-06-01T13:42:08.034Z,31.08
2019-06-01T13:44:38.804Z,31.37
2019-06-01T13:47:09.564Z,31.07
2019-06-01T13:49:40.258Z,31.80
2019-06-01T13:52:11.042Z,32.17
2019-06-01T13:54:41.931Z,32.13
2019-06-01T13:57:12.716Z,31.58
2019-06-01T13:59:44.642Z,32.45
2019-06-01T14:02:15.525Z,31.67
2019-06-01T14:04:47.552Z,32.65
2019-06-01T14:07:18.419Z,32.86
2019-06-01T14:09:49.308Z,33.65
2019-06-01T14:12:20.076Z,32.42
2019-06-01T14:14:51.525Z,32.34
2019-06-01T14:17:22.367Z,33.35
2019-06-01T14:19:53.834Z,33.14
2019-06-01T14:22:25.660Z,32.58
2019-06-01T14:25:10.382Z,32.86
2019-06-01T14:27:28.649Z,33.48
2019-06-01T14:29:59.145Z,33.53
2019-06-01T14:32:29.783Z,34.14
2019-06-01T14:35:00.282Z,33.43
2019-06-01T14:37:30.749Z,33.97
2019-06-01T14:40:01.256Z,34.08
2019-06-01T14:42:31.753Z,33.61
2019-06-01T14:45:02.260Z,33.92
2019-06-01T14:47:32.846Z,34.38
2019-06-01T14:50:03.616Z,34.27
2019-06-01T14:52:35.274Z,34.58
2019-06-01T14:55:06.771Z,34.04
2019-06-01T14:57:37.276Z,34.58
2019-06-01T15:00:08.706Z,34.16
2019-06-01T15:02:39.296Z,34.25
2019-06-01T15:05:10.696Z,33.74
2019-06-01T15:07:41.413Z,33.87
2019-06-01T15:10:14.478Z,33.70
2019-06-01T15:12:45.274Z,34.47
2019-06-01T15:15:16.213Z,33.15
2019-06-01T15:17:46.998Z,33.74
2019-06-01T15:20:18.097Z,34.50
2019-06-01T15:22:50.006Z,34.90
2019-06-01T15:25:20.884Z,33.54
2019-06-01T15:27:52.638Z,34.60
2019-06-01T15:30:24.047Z,35.18
2019-06-01T15:32:56.101Z,35.34
2019-06-01T15:35:28.082Z,35.50
2019-06-01T15:38:02.066Z,35.56
2019-06-01T15:40:31.296Z,35.95
2019-06-01T15:43:02.016Z,36.73
2019-06-01T15:45:32.804Z,36.18
2019-06-01T15:48:03.564Z,36.44
2019-06-01T15:50:34.351Z,36.36
2019-06-01T15:53:05.221Z,36.29
2019-06-01T15:55:36.033Z,36.11
2019-06-01T15:58:06.912Z,35.73
2019-06-01T16:00:37.531Z,35.76
2019-06-01T16:03:07.984Z,33.44
2019-06-01T16:05:38.494Z,33.95
2019-06-01T16:08:08.983Z,34.84
2019-06-01T16:10:39.479Z,34.48
2019-06-01T16:13:09.944Z,34.75
2019-06-01T16:15:40.696Z,35.54
2019-06-01T16:18:11.493Z,36.40
2019-06-01T16:20:42.216Z,36.35
2019-06-01T16:23:14.519Z,35.84
2019-06-01T16:25:52.303Z,35.69
2019-06-01T16:28:17.590Z,34.89
2019-06-01T16:30:48.369Z,35.43
2019-06-01T16:33:20.078Z,35.81
2019-06-01T16:35:51.149Z,35.67
2019-06-01T16:38:21.856Z,36.24
2019-06-01T16:40:52.708Z,36.55
2019-06-01T16:43:23.566Z,36.15
2019-06-01T16:45:55.591Z,36.19
2019-06-01T16:48:26.434Z,35.64
2019-06-01T16:50:57.640Z,35.37
2019-06-01T16:53:29.358Z,35.73
2019-06-01T16:56:00.074Z,35.68
2019-06-01T16:58:30.991Z,35.59
2019-06-01T17:01:02.650Z,35.24
2019-06-01T17:03:33.675Z,35.86
2019-06-01T17:06:04.840Z,35.46
2019-06-01T17:08:35.852Z,36.14
2019-06-01T17:11:06.930Z,35.70
2019-06-01T17:13:37.758Z,35.71
2019-06-01T17:16:08.424Z,35.32
2019-06-01T17:18:39.126Z,34.37
2019-06-01T17:21:09.716Z,34.09
2019-06-01T17:23:40.184Z,33.97
2019-06-01T17:26:10.646Z,33.02
2019-06-01T17:28:41.183Z,32.89
2019-06-01T17:31:12.119Z,32.48
2019-06-01T17:33:42.714Z,32.49
2019-06-01T17:36:13.488Z,32.20
2019-06-01T17:38:44.313Z,31.64
2019-06-01T17:41:15.020Z,31.36
2019-06-01T17:43:45.825Z,31.29
2019-06-01T17:46:16.694Z,31.15
2019-06-01T17:48:47.765Z,31.15
2019-06-01T17:51:18.565Z,31.08
2019-06-01T17:53:53.111Z,30.91
2019-06-01T17:56:21.708Z,30.55
2019-06-01T17:58:52.581Z,29.98
2019-06-01T18:01:23.379Z,29.58
2019-06-01T18:03:54.249Z,29.44
2019-06-01T18:06:25.023Z,29.24
2019-06-01T18:08:55.924Z,29.04
2019-06-01T18:11:26.788Z,28.24
2019-06-01T18:13:57.558Z,28.05
2019-06-01T18:16:28.470Z,28.03
2019-06-01T18:18:59.437Z,27.82
2019-06-01T18:21:33.378Z,27.76
2019-06-01T18:24:05.155Z,27.87
2019-06-01T18:26:35.296Z,27.68
2019-06-01T18:29:06.571Z,27.46
2019-06-01T18:31:37.203Z,27.41
2019-06-01T18:34:07.906Z,27.42
2019-06-01T18:36:38.436Z,27.25
2019-06-01T18:39:09.679Z,27.18
2019-06-01T18:41:40.132Z,27.26
2019-06-01T18:44:11.813Z,27.36
2019-06-01T18:46:42.438Z,27.17
2019-06-01T18:49:16.248Z,27.09
2019-06-01T18:51:45.167Z,26.92
2019-06-01T18:54:15.969Z,26.85
2019-06-01T18:56:46.936Z,26.90
2019-06-01T18:59:18.053Z,26.78
2019-06-01T19:01:48.976Z,26.39
2019-06-01T19:04:19.986Z,26.10
2019-06-01T19:06:50.756Z,26.00
2019-06-01T19:09:21.563Z,25.87
2019-06-01T19:11:53.349Z,25.88
2019-06-01T19:14:24.623Z,25.94
2019-06-01T19:16:55.532Z,25.83
2019-06-01T19:19:26.445Z,25.77
2019-06-01T19:21:57.191Z,25.52
2019-06-01T19:24:28.076Z,25.51
2019-06-01T19:26:58.846Z,25.48
2019-06-01T19:29:29.716Z,25.47
2019-06-01T19:32:00.620Z,25.31
2019-06-01T19:34:31.515Z,25.17
2019-06-01T19:37:02.739Z,25.10
2019-06-01T19:39:33.877Z,24.71
2019-06-01T19:42:04.680Z,25.01
2019-06-01T19:44:36.698Z,25.16
2019-06-01T19:47:09.738Z,24.92
2019-06-01T19:49:43.887Z,24.67
2019-06-01T19:52:14.570Z,24.63
2019-06-01T19:54:45.306Z,24.62
2019-06-01T19:57:18.931Z,24.91
2019-06-01T19:59:47.976Z,24.98
2019-06-01T20:02:29.562Z,24.96
2019-06-01T20:04:50.699Z,24.94
2019-06-01T20:07:21.473Z,24.93
2019-06-01T20:09:52.004Z,24.95
2019-06-01T20:12:22.609Z,24.88
2019-06-01T20:14:53.077Z,24.87
2019-06-01T20:17:26.401Z,24.84
2019-06-01T20:19:56.121Z,24.81
2019-06-01T20:22:26.905Z,24.66
2019-06-01T20:24:58.583Z,24.56
2019-06-01T20:27:29.360Z,24.49
2019-06-01T20:29:59.921Z,24.36
2019-06-01T20:32:30.792Z,24.30
2019-06-01T20:35:01.567Z,23.85
2019-06-01T20:37:32.670Z,23.99
2019-06-01T20:40:03.612Z,23.85
2019-06-01T20:42:34.777Z,23.91
2019-06-01T20:45:07.465Z,23.77
2019-06-01T20:47:39.040Z,23.68
2019-06-01T20:50:10.565Z,23.62
2019-06-01T20:52:41.580Z,23.62
2019-06-01T20:55:12.901Z,23.55
2019-06-01T20:57:43.765Z,23.50
2019-06-01T21:00:15.967Z,23.39
2019-06-01T21:02:46.801Z,23.18
2019-06-01T21:05:17.959Z,23.03
2019-06-01T21:07:48.464Z,23.13
2019-06-01T21:10:20.490Z,23.17
2019-06-01T21:12:51.049Z,23.08
2019-06-01T21:15:21.566Z,23.10
2019-06-01T21:17:52.040Z,23.02
2019-06-01T21:20:28.577Z,22.96
2019-06-01T21:22:54.909Z,22.99
2019-06-01T21:25:25.504Z,22.90
2019-06-01T21:27:55.991Z,22.87
2019-06-01T21:30:26.460Z,22.71
2019-06-01T21:32:56.985Z,22.73
2019-06-01T21:35:28.631Z,22.53
2019-06-01T21:37:59.328Z,22.55
2019-06-01T21:40:30.092Z,22.43
2019-06-01T21:43:12.847Z,22.40
2019-06-01T21:45:33.200Z,22.37
2019-06-01T21:48:03.800Z,22.38
2019-06-01T21:50:34.679Z,22.40
2019-06-01T21:53:05.508Z,22.32
2019-06-01T21:55:36.612Z,22.33
2019-06-01T21:58:07.448Z,22.09
2019-06-01T22:00:38.844Z,21.85
2019-06-01T22:03:11.322Z,21.75
2019-06-01T22:05:42.085Z,21.61
2019-06-01T22:08:12.920Z,21.43
2019-06-01T22:10:43.831Z,21.49
2019-06-01T22:13:18.783Z,21.40
2019-06-01T22:15:47.213Z,21.47
2019-06-01T22:18:17.837Z,21.67
2019-06-01T22:20:48.883Z,21.89
2019-06-01T22:23:19.772Z,21.97
2019-06-01T22:25:50.577Z,21.78
2019-06-01T22:28:22.254Z,21.73
2019-06-01T22:30:53.275Z,21.79
2019-06-01T22:33:24.586Z,21.82
2019-06-01T22:35:55.473Z,21.83
2019-06-01T22:38:26.160Z,21.77
2019-06-01T22:40:57.663Z,21.71
2019-06-01T22:43:42.240Z,21.72
2019-06-01T22:46:00.468Z,21.67
2019-06-01T22:48:31.245Z,21.59
2019-06-01T22:51:02.014Z,21.55
2019-06-01T22:53:32.813Z,21.47
2019-06-01T22:56:03.799Z,21.49
2019-06-01T22:58:34.595Z,21.51
2019-06-01T23:01:05.512Z,21.46
2019-06-01T23:03:37.384Z,21.37
2019-06-01T23:06:08.417Z,21.41
2019-06-01T23:08:39.200Z,21.40
2019-06-01T23:11:10.097Z,21.40
2019-06-01T23:13:52.863Z,21.33
2019-06-01T23:16:13.386Z,21.31
2019-06-01T23:18:44.306Z,21.23
2019-06-01T23:21:14.990Z,21.21
2019-06-01T23:23:45.949Z,21.20
2019-06-01T23:26:16.893Z,21.16
2019-06-01T23:28:47.642Z,21.04
2019-06-01T23:31:18.463Z,20.99
2019-06-01T23:33:49.331Z,21.04
2019-06-01T23:36:20.105Z,21.03
2019-06-01T23:38:51.908Z,20.99
2019-06-01T23:41:22.477Z,21.03
2019-06-01T23:44:09.929Z,21.02
2019-06-01T23:46:25.174Z,21.02
2019-06-01T23:48:55.812Z,20.97
2019-06-01T23:51:27.357Z,21.24
2019-06-01T23:53:58.121Z,21.18
2019-06-01T23:56:29.687Z,21.07
2019-06-01T23:59:00.274Z,21.06
